Terminal Aerodrome Forecast
Issued by NWS

Home | Current Version | Previous Version | Text Only | Print | Product List | Glossary On
Versions: 1 2 3 4 5 6 7 8 9 10 11 12 13 14 15 16 17 18 19 20 21
000
FTUS46 KLOX 222048 AAA
TAFPRB
TAF AMD
KPRB 222048Z 2221/2318 32006KT P6SM SCT050
     FM222300 22013KT P6SM BKN100
     FM230400 25009KT P6SM BKN050
     FM231000 29005KT P6SM BKN030
     FM231500 31006KT P6SM SCT035 SCT250=

USA.gov is the U.S. government's official web portal to all federal, state and local government web resources and services.